Time;durP1;ratioP1;P1;durP2;ratioP2;P2;SDS_P1;SDS_P2;PMS_P1;PMS_P2;Temp;Humidity;BMP_temperature;BMP_pressure;BME280_temperature;BME280_humidity;BME280_pressure;Samples;Min_cycle;Max_cycle;Signal;HPM_P1;HPM_P2
2023/01/21 00:04:34;;;;;;;21.40;18.50;;;21.40;57.80;;;;;;222103;1256;24063;-49
2023/01/21 00:09:38;;;;;;;21.30;17.70;;;21.30;57.60;;;;;;221879;1264;25249;-50
2023/01/21 00:14:42;;;;;;;21.90;17.70;;;21.40;57.90;;;;;;224221;1250;22827;-50
2023/01/21 00:19:46;;;;;;;20.50;17.90;;;21.40;57.40;;;;;;223190;1269;22544;-51
2023/01/21 00:24:50;;;;;;;22.70;17.30;;;21.40;57.20;;;;;;221863;1266;22720;-50
2023/01/21 00:29:54;;;;;;;20.20;18.00;;;21.60;56.60;;;;;;221892;1266;22639;-52
2023/01/21 00:34:58;;;;;;;19.40;17.30;;;22.10;55.40;;;;;;221939;1271;24188;-52
2023/01/21 00:40:04;;;;;;;20.00;16.80;;;22.50;54.40;;;;;;221981;1254;25662;-51
2023/01/21 00:45:09;;;;;;;20.50;16.50;;;22.70;54.10;;;;;;221883;1258;25418;-51
2023/01/21 00:50:13;;;;;;;23.40;15.90;;;22.80;53.90;;;;;;221967;1260;25570;-49
2023/01/21 00:55:17;;;;;;;19.30;16.10;;;22.90;54.30;;;;;;222068;1266;22647;-51
2023/01/21 01:00:21;;;;;;;17.50;15.30;;;22.90;53.70;;;;;;221940;1271;24238;-51
2023/01/21 01:05:25;;;;;;;18.50;15.90;;;23.00;53.50;;;;;;222014;1260;24246;-50
2023/01/21 01:10:29;;;;;;;20.00;14.80;;;23.10;53.20;;;;;;222113;1270;22637;-51
2023/01/21 01:15:33;;;;;;;19.30;15.40;;;23.20;53.00;;;;;;221956;1254;24050;-50
2023/01/21 01:20:41;;;;;;;17.70;15.60;;;23.30;52.80;;;;;;222097;1257;24101;-48
2023/01/21 01:25:57;;;;;;;17.50;14.70;;;23.40;52.60;;;;;;221961;1270;24330;-49
2023/01/21 01:31:04;;;;;;;16.40;14.70;;;23.50;52.40;;;;;;221965;1270;25538;-52
2023/01/21 01:36:19;;;;;;;15.90;14.20;;;23.60;52.30;;;;;;221832;1252;22648;-51
2023/01/21 01:41:26;;;;;;;16.20;14.50;;;23.70;52.30;;;;;;221768;1264;25351;-53
2023/01/21 01:46:35;;;;;;;19.30;14.60;;;23.80;52.10;;;;;;223179;1266;25445;-52
2023/01/21 01:51:49;;;;;;;19.60;14.20;;;23.80;52.00;;;;;;225528;1269;24219;-54
2023/01/21 01:56:58;;;;;;;15.60;13.70;;;23.80;52.10;;;;;;221690;1264;24049;-50
2023/01/21 02:02:09;;;;;;;15.80;14.20;;;23.70;52.50;;;;;;229846;1268;22266;-50
2023/01/21 02:07:16;;;;;;;16.20;14.50;;;23.60;52.80;;;;;;229857;1265;22105;-50
2023/01/21 02:12:21;;;;;;;17.80;16.00;;;23.60;52.70;;;;;;221932;1260;206552;-51
2023/01/21 02:18:01;;;;;;;16.50;15.00;;;23.50;53.60;;;;;;221830;1263;25469;-50
2023/01/21 02:23:21;;;;;;;18.60;16.70;;;23.40;53.50;;;;;;221819;1271;25664;-48
2023/01/21 02:28:47;;;;;;;16.50;14.90;;;23.20;54.20;;;;;;221878;1260;24346;-51
2023/01/21 02:34:10;;;;;;;17.60;15.80;;;23.10;54.50;;;;;;221933;1270;22557;-52
2023/01/21 02:39:19;;;;;;;17.70;15.80;;;22.90;54.60;;;;;;221829;1270;22640;-48
2023/01/21 02:44:31;;;;;;;17.20;15.10;;;22.70;55.00;;;;;;221865;1258;22528;-51
2023/01/21 02:49:45;;;;;;;;;;;22.60;55.30;;;;;;226545;1262;24133;-52
2023/01/21 02:54:51;;;;;;;16.40;14.10;;;22.60;54.80;;;;;;229851;1270;22190;-50
2023/01/21 02:59:57;;;;;;;14.80;13.30;;;22.60;54.50;;;;;;222810;1264;24283;-50
2023/01/21 03:05:19;;;;;;;17.20;14.90;;;22.60;54.40;;;;;;222028;1257;25069;-52
2023/01/21 03:10:34;;;;;;;17.30;13.70;;;22.40;54.60;;;;;;221870;1267;22540;-54
2023/01/21 03:21:18;;;;;;;13.90;12.50;;;22.10;54.40;;;;;;221772;1263;22722;-50
2023/01/21 03:26:35;;;;;;;14.10;12.80;;;22.00;55.30;;;;;;221854;1267;22950;-49
2023/01/21 03:31:42;;;;;;;14.60;13.10;;;22.00;54.90;;;;;;221864;1264;25558;-50
2023/01/21 03:36:56;;;;;;;14.60;12.90;;;21.90;54.80;;;;;;221921;1248;22527;-51
2023/01/21 03:42:01;;;;;;;13.90;12.60;;;21.90;54.60;;;;;;222243;1260;22547;-52
2023/01/21 03:47:21;;;;;;;13.00;11.70;;;21.90;54.60;;;;;;221830;1258;25323;-49
2023/01/21 03:52:26;;;;;;;13.20;11.90;;;21.80;54.70;;;;;;221915;1270;25434;-49
2023/01/21 03:57:30;;;;;;;13.00;11.70;;;21.80;54.60;;;;;;221892;1271;22543;-51
2023/01/21 04:02:34;;;;;;;12.70;11.40;;;21.80;54.50;;;;;;222020;1264;22554;-50
2023/01/21 04:07:38;;;;;;;13.20;11.90;;;21.70;54.30;;;;;;222015;1260;25569;-53
2023/01/21 04:12:43;;;;;;;12.50;11.30;;;21.70;54.50;;;;;;222006;1267;24087;-50
2023/01/21 04:17:47;;;;;;;12.40;11.20;;;21.70;54.50;;;;;;222175;1264;23305;-52
2023/01/21 04:22:51;;;;;;;12.70;11.40;;;21.90;55.00;;;;;;221942;1264;23224;-51
2023/01/21 04:27:56;;;;;;;12.80;11.50;;;22.30;53.70;;;;;;222017;1264;22535;-51
2023/01/21 04:33:02;;;;;;;12.80;10.00;;;22.50;52.90;;;;;;222563;1263;24241;-51
2023/01/21 04:38:06;;;;;;;11.20;10.10;;;22.70;52.20;;;;;;222020;1260;24244;-53
2023/01/21 04:43:10;;;;;;;10.50;9.40;;;22.80;51.90;;;;;;229811;1261;22539;-51
2023/01/21 04:48:14;;;;;;;10.70;9.60;;;23.10;51.30;;;;;;229897;1270;22744;-52
2023/01/21 04:53:18;;;;;;;10.60;9.50;;;23.20;51.50;;;;;;228171;1263;22500;-51
2023/01/21 04:58:22;;;;;;;10.30;9.20;;;23.40;50.50;;;;;;222028;1263;22597;-48
2023/01/21 05:03:26;;;;;;;10.60;9.40;;;23.30;50.60;;;;;;221908;1264;22534;-52
2023/01/21 05:08:30;;;;;;;10.40;9.30;;;23.30;50.80;;;;;;221845;1262;22707;-50
2023/01/21 05:13:34;;;;;;;10.70;9.80;;;23.30;50.80;;;;;;221865;1265;24363;-53
2023/01/21 05:18:44;;;;;;;10.10;8.90;;;23.30;50.60;;;;;;221932;1270;22663;-48
2023/01/21 05:23:49;;;;;;;9.70;8.80;;;23.40;50.50;;;;;;221834;1263;25435;-52
2023/01/21 05:28:53;;;;;;;9.90;8.90;;;23.40;50.40;;;;;;221845;1263;22541;-49
2023/01/21 05:33:57;;;;;;;9.30;8.50;;;23.40;50.30;;;;;;221890;1267;22684;-52
2023/01/21 05:39:01;;;;;;;10.00;9.00;;;23.50;50.10;;;;;;222017;1263;22559;-49
2023/01/21 05:44:08;;;;;;;9.70;8.70;;;23.50;50.00;;;;;;221939;1267;22891;-52
2023/01/21 05:49:12;;;;;;;9.90;8.90;;;23.50;50.00;;;;;;221862;1262;22614;-50
2023/01/21 05:54:16;;;;;;;9.10;8.20;;;23.50;50.00;;;;;;221986;1260;26715;-51
2023/01/21 05:59:20;;;;;;;8.80;8.00;;;23.50;50.00;;;;;;221822;1264;24212;-50
2023/01/21 06:04:29;;;;;;;9.50;8.60;;;23.50;50.00;;;;;;221893;1264;22522;-48
2023/01/21 06:09:33;;;;;;;8.60;7.80;;;23.50;49.90;;;;;;221909;1263;22544;-47
2023/01/21 06:14:37;;;;;;;8.50;7.80;;;23.50;50.50;;;;;;222318;1270;22516;-49
2023/01/21 06:19:41;;;;;;;8.30;7.50;;;23.60;49.90;;;;;;221834;1262;22536;-51
2023/01/21 06:24:45;;;;;;;8.40;7.70;;;23.50;49.60;;;;;;221813;1257;22523;-51
2023/01/21 06:29:49;;;;;;;8.30;7.50;;;23.40;49.90;;;;;;222019;1255;22684;-50
2023/01/21 06:34:53;;;;;;;8.10;7.40;;;23.20;50.70;;;;;;222043;1262;22550;-51
2023/01/21 06:39:57;;;;;;;8.50;7.70;;;23.00;50.70;;;;;;221892;1257;23873;-51
2023/01/21 06:45:02;;;;;;;7.70;7.00;;;22.90;50.80;;;;;;221905;1265;22746;-52
2023/01/21 06:50:08;;;;;;;7.70;7.10;;;22.70;51.10;;;;;;221864;1260;22591;-48
2023/01/21 06:55:13;;;;;;;7.80;7.00;;;22.60;51.10;;;;;;221729;1266;22650;-49
2023/01/21 07:00:18;;;;;;;7.80;7.10;;;22.60;51.00;;;;;;221871;1256;23880;-50
2023/01/21 07:05:22;;;;;;;7.40;6.80;;;22.50;51.00;;;;;;221814;1270;22537;-51
2023/01/21 07:10:27;;;;;;;7.70;7.00;;;22.50;51.30;;;;;;221881;1256;22637;-50
2023/01/21 07:15:31;;;;;;;7.90;7.20;;;22.30;51.30;;;;;;221952;1255;23936;-52
2023/01/21 07:20:35;;;;;;;8.10;7.30;;;22.10;51.70;;;;;;221980;1255;22535;-48
2023/01/21 07:25:42;;;;;;;7.90;7.20;;;22.00;51.60;;;;;;221784;1256;23496;-49
2023/01/21 07:30:46;;;;;;;8.40;7.60;;;21.90;52.00;;;;;;221844;1256;22527;-50
2023/01/21 07:35:50;;;;;;;6.70;6.10;;;21.80;51.80;;;;;;221926;1260;23594;-52
2023/01/21 07:40:54;;;;;;;7.20;6.60;;;21.80;52.00;;;;;;221783;1257;22559;-50
2023/01/21 07:45:59;;;;;;;8.30;6.70;;;21.70;51.90;;;;;;222021;1267;22620;-51
2023/01/21 07:51:03;;;;;;;7.00;6.40;;;21.60;51.90;;;;;;221900;1259;22535;-51
2023/01/21 07:56:11;;;;;;;7.90;5.80;;;21.70;51.90;;;;;;221903;1256;24301;-50
2023/01/21 08:01:15;;;;;;;10.40;6.80;;;22.00;51.70;;;;;;221772;1263;23867;-51
2023/01/21 08:06:19;;;;;;;8.30;6.20;;;22.40;50.80;;;;;;221767;1263;22770;-51
2023/01/21 08:11:23;;;;;;;7.30;6.40;;;22.60;50.40;;;;;;221934;1257;24300;-49
2023/01/21 08:16:28;;;;;;;9.20;5.90;;;22.70;50.00;;;;;;221923;1263;25344;-49
2023/01/21 08:21:32;;;;;;;7.10;6.40;;;22.90;49.90;;;;;;221810;1267;27741;-49
2023/01/21 08:26:36;;;;;;;10.70;6.90;;;23.00;49.60;;;;;;221927;1263;24226;-52
2023/01/21 08:31:40;;;;;;;8.20;6.10;;;23.00;49.50;;;;;;221994;1267;22534;-50
2023/01/21 08:36:45;;;;;;;8.60;6.00;;;23.10;48.90;;;;;;221810;1247;22584;-51
2023/01/21 08:41:49;;;;;;;9.20;5.80;;;23.20;49.40;;;;;;221948;1251;24527;-51
2023/01/21 08:46:53;;;;;;;8.10;6.60;;;23.20;49.10;;;;;;221693;1256;22534;-48
2023/01/21 08:51:57;;;;;;;11.70;5.40;;;23.10;49.30;;;;;;221627;1263;24357;-48
2023/01/21 08:57:01;;;;;;;6.60;5.50;;;22.90;49.70;;;;;;221527;1266;22559;-48
2023/01/21 09:02:07;;;;;;;6.40;5.30;;;23.00;49.60;;;;;;221565;1263;25451;-49
2023/01/21 09:07:11;;;;;;;7.30;5.50;;;23.00;49.70;;;;;;221965;1263;22573;-47
2023/01/21 09:12:15;;;;;;;6.90;5.70;;;23.10;49.80;;;;;;221815;1256;24218;-50
2023/01/21 09:17:21;;;;;;;9.80;5.30;;;23.10;49.40;;;;;;221618;1250;24090;-47
2023/01/21 09:22:28;;;;;;;12.30;6.40;;;23.00;50.00;;;;;;221749;1251;22763;-49
2023/01/21 09:27:33;;;;;;;9.80;5.80;;;23.10;50.60;;;;;;221400;1263;24212;-49
2023/01/21 09:32:37;;;;;;;25.60;7.30;;;23.10;52.70;;;;;;221766;1264;22523;-48
2023/01/21 09:37:41;;;;;;;23.50;5.50;;;23.20;52.40;;;;;;221775;1262;22640;-49
2023/01/21 09:42:46;;;;;;;9.50;4.90;;;23.20;51.80;;;;;;221494;1256;22636;-47
2023/01/21 09:47:51;;;;;;;22.80;5.90;;;23.10;51.70;;;;;;221765;1263;25352;-48
2023/01/21 09:53:05;;;;;;;26.40;5.50;;;23.10;51.40;;;;;;221824;1263;23172;-47
2023/01/21 09:58:24;;;;;;;13.80;5.30;;;23.20;52.90;;;;;;221519;1256;23383;-49
2023/01/21 10:03:46;;;;;;;12.10;5.20;;;23.40;51.90;;;;;;222687;1263;22534;-48
2023/01/21 10:09:01;;;;;;;10.80;5.40;;;23.50;52.80;;;;;;221733;1247;24205;-47
2023/01/21 10:14:30;;;;;;;6.70;4.30;;;23.30;51.30;;;;;;221655;1262;25364;-51
2023/01/21 10:19:41;;;;;;;7.60;4.40;;;23.10;51.60;;;;;;221698;1263;22643;-53
2023/01/21 10:24:57;;;;;;;11.20;4.00;;;22.90;52.50;;;;;;221743;1262;24272;-50
2023/01/21 10:30:27;;;;;;;11.70;4.30;;;22.70;52.80;;;;;;221698;1256;22522;-51
2023/01/21 10:35:57;;;;;;;9.10;4.00;;;22.60;53.20;;;;;;221523;1256;22544;-48
2023/01/21 10:41:35;;;;;;;7.80;4.50;;;22.50;53.10;;;;;;221801;1259;23127;-47
2023/01/21 10:46:51;;;;;;;7.20;4.20;;;22.40;52.90;;;;;;225800;1263;27400;-47
2023/01/21 10:52:04;;;;;;;8.40;4.00;;;22.40;52.70;;;;;;221816;1260;22537;-50
2023/01/21 10:57:12;;;;;;;10.50;3.90;;;22.20;52.70;;;;;;221987;1250;22535;-50
2023/01/21 11:02:23;;;;;;;10.00;4.20;;;22.10;52.80;;;;;;221891;1263;25405;-51
2023/01/21 11:07:33;;;;;;;8.20;4.30;;;22.20;53.00;;;;;;222069;1257;24044;-48
2023/01/21 11:12:37;;;;;;;15.90;4.50;;;22.30;53.10;;;;;;221925;1259;22675;-50
2023/01/21 11:17:44;;;;;;;11.40;3.90;;;22.20;53.10;;;;;;221907;1256;22530;-51
2023/01/21 11:22:50;;;;;;;11.50;4.00;;;22.10;54.00;;;;;;221869;1267;22650;-51
2023/01/21 11:27:54;;;;;;;18.30;4.70;;;22.20;53.50;;;;;;221762;1267;22530;-50
2023/01/21 11:33:24;;;;;;;10.70;3.80;;;22.00;53.80;;;;;;222654;1257;24731;-51
2023/01/21 11:38:28;;;;;;;13.80;4.40;;;21.90;53.60;;;;;;221919;1262;23874;-51
2023/01/21 11:43:47;;;;;;;14.10;3.90;;;21.90;53.50;;;;;;221987;1248;22629;-53
2023/01/21 11:49:07;;;;;;;15.00;3.80;;;21.80;53.60;;;;;;221663;1248;22539;-49
2023/01/21 11:54:13;;;;;;;12.90;3.90;;;21.70;53.50;;;;;;221796;1256;22529;-55
2023/01/21 11:59:55;;;;;;;14.80;3.70;;;21.70;54.30;;;;;;222000;1263;25455;-55
2023/01/21 12:05:11;;;;;;;8.00;3.90;;;21.70;53.80;;;;;;220808;1272;26740;-55
2023/01/21 12:10:27;;;;;;;11.50;3.60;;;21.70;53.50;;;;;;220880;1268;22522;-56
2023/01/21 12:16:02;;;;;;;7.70;3.10;;;21.70;54.10;;;;;;220825;1272;22534;-56
2023/01/21 12:21:15;;;;;;;8.20;3.80;;;21.60;54.10;;;;;;220695;1265;24100;-54
2023/01/21 12:26:30;;;;;;;8.80;3.30;;;21.80;53.60;;;;;;220672;1272;23021;-50
2023/01/21 12:31:41;;;;;;;15.60;4.10;;;22.20;53.00;;;;;;220714;1271;22532;-52
2023/01/21 12:36:55;;;;;;;6.60;3.60;;;22.40;52.40;;;;;;221060;1269;22602;-48
2023/01/21 12:42:19;;;;;;;8.80;3.50;;;22.50;52.40;;;;;;221659;1257;22533;-55
2023/01/21 12:47:33;;;;;;;7.00;3.10;;;22.60;52.40;;;;;;221637;1256;22612;-52
2023/01/21 12:52:47;;;;;;;5.40;3.80;;;22.70;51.40;;;;;;221623;1266;22530;-51
2023/01/21 12:58:03;;;;;;;7.50;3.50;;;22.80;51.90;;;;;;227560;1257;25347;-52
2023/01/21 13:03:28;;;;;;;11.30;3.80;;;22.80;51.10;;;;;;221807;1261;22547;-51
2023/01/21 13:08:55;;;;;;;10.00;3.60;;;22.90;51.20;;;;;;222079;1271;24257;-50
2023/01/21 13:14:06;;;;;;;6.20;3.10;;;23.00;51.10;;;;;;221675;1268;25297;-54
2023/01/21 13:19:14;;;;;;;7.80;3.30;;;23.00;51.10;;;;;;221670;1266;24280;-55
2023/01/21 13:24:28;;;;;;;10.50;3.10;;;23.20;50.70;;;;;;221918;1271;22539;-52
2023/01/21 13:29:55;;;;;;;12.50;3.20;;;23.10;51.50;;;;;;222008;1257;24321;-56
2023/01/21 13:35:11;;;;;;;9.90;3.20;;;23.10;51.20;;;;;;221891;1260;23882;-53
2023/01/21 13:40:18;;;;;;;7.50;3.60;;;23.20;51.20;;;;;;221763;1260;23882;-62
2023/01/21 13:46:00;;;;;;;7.40;3.20;;;23.30;50.60;;;;;;223916;1262;24212;-53
2023/01/21 13:51:14;;;;;;;5.10;3.30;;;23.40;50.20;;;;;;222233;1255;22650;-56
2023/01/21 13:56:39;;;;;;;11.20;4.30;;;23.30;50.40;;;;;;222156;1256;22548;-53
2023/01/21 14:01:50;;;;;;;11.60;5.00;;;23.40;51.50;;;;;;221812;1261;24234;-55
2023/01/21 14:07:20;;;;;;;13.60;5.20;;;23.60;53.10;;;;;;221982;1262;23118;-51
2023/01/21 14:12:39;;;;;;;12.80;4.30;;;23.60;54.10;;;;;;221579;1253;508325;-55
2023/01/21 14:18:08;;;;;;;11.30;5.10;;;23.50;54.60;;;;;;221751;1269;22649;-47
2023/01/21 14:23:44;;;;;;;10.50;4.50;;;23.30;54.70;;;;;;222073;1264;25332;-52
2023/01/21 14:29:17;;;;;;;11.00;6.70;;;23.20;54.60;;;;;;222007;1269;25581;-52
2023/01/21 14:34:33;;;;;;;19.70;7.20;;;23.20;56.60;;;;;;222004;1270;24262;-52
2023/01/21 14:39:57;;;;;;;11.40;6.10;;;23.20;57.00;;;;;;221971;1269;25239;-49
2023/01/21 14:45:04;;;;;;;14.80;6.00;;;23.10;56.50;;;;;;221837;1264;25365;-54
2023/01/21 14:50:09;;;;;;;10.00;5.70;;;23.10;56.10;;;;;;221830;1250;24256;-52
2023/01/21 14:55:27;;;;;;;12.90;5.90;;;23.00;56.00;;;;;;221852;1263;22656;-51
2023/01/21 15:00:36;;;;;;;17.10;6.20;;;22.70;57.00;;;;;;223326;1254;22521;-51
2023/01/21 15:05:43;;;;;;;13.00;5.50;;;22.80;56.30;;;;;;221984;1263;24379;-55
2023/01/21 15:11:29;;;;;;;16.70;5.00;;;22.80;56.10;;;;;;222018;1271;25432;-56
2023/01/21 15:16:39;;;;;;;13.20;5.50;;;22.70;56.00;;;;;;222033;1268;22651;-56
2023/01/21 15:21:59;;;;;;;12.80;5.40;;;22.60;55.80;;;;;;222011;1250;22763;-56
2023/01/21 15:27:25;;;;;;;24.00;10.60;;;22.40;56.60;;;;;;221801;1257;22574;-57
2023/01/21 15:32:44;;;;;;;30.00;12.00;;;22.40;55.90;;;;;;221828;1259;23144;-56
2023/01/21 15:37:51;;;;;;;19.60;10.40;;;22.40;56.00;;;;;;221982;1263;25413;-54
2023/01/21 15:43:04;;;;;;;19.50;9.80;;;22.30;56.00;;;;;;221876;1264;24238;-54
2023/01/21 15:48:28;;;;;;;18.40;9.50;;;22.20;56.10;;;;;;221808;1263;25264;-53
2023/01/21 15:53:50;;;;;;;22.70;9.40;;;22.20;56.20;;;;;;221842;1269;22640;-54
2023/01/21 15:59:14;;;;;;;25.40;9.80;;;22.30;55.90;;;;;;221948;1262;24206;-54
2023/01/21 16:04:37;;;;;;;21.70;9.90;;;22.20;55.60;;;;;;221986;1259;22606;-51
2023/01/21 16:10:01;;;;;;;21.80;9.50;;;22.30;55.90;;;;;;221967;1259;22576;-50
2023/01/21 16:15:41;;;;;;;23.60;9.20;;;22.10;56.30;;;;;;221968;1271;22616;-47
2023/01/21 16:20:49;;;;;;;18.90;9.00;;;22.10;55.00;;;;;;222004;1252;24047;-50
2023/01/21 16:25:55;;;;;;;33.90;9.80;;;22.10;54.80;;;;;;222452;1268;22532;-53
2023/01/21 16:31:03;;;;;;;17.20;8.20;;;22.00;55.10;;;;;;222864;1268;25646;-48
2023/01/21 16:36:12;;;;;;;22.00;8.30;;;21.70;54.10;;;;;;222531;1268;26587;-49
2023/01/21 16:41:23;;;;;;;22.10;8.80;;;21.60;54.00;;;;;;222024;1266;22639;-46
2023/01/21 16:46:33;;;;;;;16.10;8.80;;;21.50;54.00;;;;;;222073;1270;24310;-53
2023/01/21 16:51:40;;;;;;;22.30;10.00;;;21.40;53.80;;;;;;222175;1270;25421;-49
2023/01/21 16:56:53;;;;;;;16.60;9.10;;;21.30;53.60;;;;;;221868;1269;24388;-50
2023/01/21 17:01:58;;;;;;;16.50;10.40;;;21.30;53.30;;;;;;222084;1269;22531;-48
2023/01/21 17:07:02;;;;;;;18.30;10.30;;;21.60;52.30;;;;;;221861;1260;22545;-49
2023/01/21 17:12:21;;;;;;;16.60;11.40;;;22.00;51.20;;;;;;222247;1269;22685;-49
2023/01/21 17:17:34;;;;;;;16.00;10.50;;;22.30;50.80;;;;;;221953;1269;22531;-47
2023/01/21 17:22:42;;;;;;;14.10;8.60;;;22.50;49.70;;;;;;222038;1254;22648;-50
2023/01/21 17:27:47;;;;;;;15.80;9.20;;;22.70;49.00;;;;;;222093;1261;24206;-50
2023/01/21 17:32:56;;;;;;;14.80;9.70;;;22.70;49.00;;;;;;222103;1266;24752;-50
2023/01/21 17:38:04;;;;;;;14.80;9.70;;;22.70;48.70;;;;;;221815;1270;26519;-48
2023/01/21 17:43:21;;;;;;;15.60;9.70;;;22.80;48.60;;;;;;221960;1271;22642;-49
2023/01/21 17:48:33;;;;;;;13.70;9.40;;;22.80;48.30;;;;;;222221;1271;25606;-46
2023/01/21 17:53:47;;;;;;;13.40;8.50;;;22.80;48.10;;;;;;221945;1271;24210;-50
2023/01/21 17:58:54;;;;;;;13.20;9.00;;;22.90;48.50;;;;;;222185;1260;25527;-50
2023/01/21 18:03:59;;;;;;;13.10;9.00;;;22.90;48.10;;;;;;222057;1270;22535;-48
2023/01/21 18:09:05;;;;;;;11.30;8.70;;;23.00;47.70;;;;;;221955;1270;25647;-50
2023/01/21 18:14:16;;;;;;;12.10;8.40;;;22.90;47.60;;;;;;221971;1271;24279;-50
2023/01/21 18:19:30;;;;;;;12.30;9.20;;;22.90;47.40;;;;;;221939;1271;23120;-48
2023/01/21 18:24:37;;;;;;;14.80;9.60;;;22.90;47.40;;;;;;221881;1269;24209;-49
2023/01/21 18:29:43;;;;;;;11.60;8.90;;;23.00;47.30;;;;;;221901;1265;22533;-49
2023/01/21 18:34:50;;;;;;;12.90;9.90;;;23.00;47.50;;;;;;221916;1271;25602;-50
2023/01/21 18:39:55;;;;;;;12.90;10.20;;;23.00;46.90;;;;;;222063;1260;24206;-50
2023/01/21 18:45:01;;;;;;;15.30;10.60;;;23.10;46.80;;;;;;221976;1269;22994;-52
2023/01/21 18:50:15;;;;;;;16.10;11.00;;;23.10;46.50;;;;;;222172;1270;22526;-49
2023/01/21 18:55:25;;;;;;;15.90;10.60;;;23.20;46.70;;;;;;221946;1270;23007;-49
2023/01/21 19:00:32;;;;;;;14.70;10.60;;;23.20;46.20;;;;;;222101;1262;22524;-50
2023/01/21 19:05:40;;;;;;;15.90;10.00;;;23.30;46.20;;;;;;222129;1269;22624;-48
2023/01/21 19:10:46;;;;;;;13.20;9.70;;;23.10;46.20;;;;;;221931;1270;22987;-46
2023/01/21 19:15:52;;;;;;;11.90;9.60;;;23.20;46.10;;;;;;222019;1269;25606;-49
2023/01/21 19:20:57;;;;;;;12.80;9.60;;;23.20;46.20;;;;;;222162;1270;22547;-51
2023/01/21 19:26:04;;;;;;;12.00;9.20;;;23.20;46.00;;;;;;222031;1266;24037;-49
2023/01/21 19:31:11;;;;;;;10.10;8.20;;;23.20;46.00;;;;;;222168;1270;24216;-52
2023/01/21 19:36:19;;;;;;;13.00;9.00;;;23.20;45.90;;;;;;221897;1269;22538;-50
2023/01/21 19:41:25;;;;;;;11.00;8.60;;;23.20;45.80;;;;;;221851;1270;25271;-51
2023/01/21 19:46:31;;;;;;;15.10;9.60;;;23.20;46.00;;;;;;221860;1271;25372;-51
2023/01/21 19:51:36;;;;;;;12.10;9.00;;;23.20;45.80;;;;;;221901;1257;24218;-49
2023/01/21 19:56:42;;;;;;;13.50;10.00;;;23.30;45.70;;;;;;221880;1271;22653;-50
2023/01/21 20:01:49;;;;;;;12.50;10.20;;;23.20;45.50;;;;;;221985;1269;24230;-52
2023/01/21 20:06:54;;;;;;;12.80;9.80;;;23.30;45.50;;;;;;221868;1270;22617;-48
2023/01/21 20:12:00;;;;;;;13.30;9.50;;;23.30;45.80;;;;;;221907;1271;24086;-48
2023/01/21 20:17:12;;;;;;;12.20;9.40;;;23.20;45.50;;;;;;222131;1264;26207;-49
2023/01/21 20:22:25;;;;;;;11.40;9.50;;;23.20;45.30;;;;;;221764;1271;23013;-49
2023/01/21 20:27:30;;;;;;;13.40;9.60;;;23.20;45.60;;;;;;222287;1266;25421;-48
2023/01/21 20:32:35;;;;;;;11.10;10.00;;;23.30;45.30;;;;;;222122;1254;24230;-48
2023/01/21 20:37:47;;;;;;;12.70;10.20;;;23.30;45.10;;;;;;222019;1270;24208;-54
2023/01/21 20:42:54;;;;;;;11.00;9.20;;;23.20;45.10;;;;;;221946;1269;22534;-50
2023/01/21 20:48:02;;;;;;;11.70;9.90;;;23.20;45.10;;;;;;221895;1271;24069;-48
2023/01/21 20:53:09;;;;;;;12.70;9.70;;;23.30;45.00;;;;;;221879;1270;24241;-49
2023/01/21 20:58:17;;;;;;;11.00;9.80;;;23.30;45.00;;;;;;221943;1271;25342;-46
2023/01/21 21:03:22;;;;;;;12.00;10.00;;;23.20;45.20;;;;;;222085;1260;23873;-51
2023/01/21 21:08:31;;;;;;;12.60;9.80;;;23.30;44.80;;;;;;222137;1270;24212;-48
2023/01/21 21:13:38;;;;;;;13.10;10.40;;;23.30;44.70;;;;;;222183;1267;24391;-50
2023/01/21 21:18:42;;;;;;;11.70;10.20;;;23.40;44.70;;;;;;222103;1270;22918;-50
2023/01/21 21:23:50;;;;;;;11.80;10.50;;;23.30;44.50;;;;;;222104;1270;25375;-50
2023/01/21 21:28:56;;;;;;;12.00;9.90;;;23.40;44.60;;;;;;221864;1270;26613;-46
2023/01/21 21:34:00;;;;;;;11.00;9.80;;;23.30;44.60;;;;;;221971;1270;25412;-51
2023/01/21 21:39:06;;;;;;;12.10;10.70;;;23.40;44.60;;;;;;221994;1270;24186;-48
2023/01/21 21:44:11;;;;;;;12.70;10.60;;;23.30;44.40;;;;;;222089;1270;23062;-48
2023/01/21 21:49:16;;;;;;;11.80;10.20;;;23.40;44.50;;;;;;222222;1267;22616;-51
2023/01/21 21:54:21;;;;;;;12.30;10.10;;;23.40;44.70;;;;;;222012;1256;23878;-50
2023/01/21 21:59:26;;;;;;;11.20;9.40;;;23.40;44.30;;;;;;222164;1261;22613;-50
2023/01/21 22:04:32;;;;;;;10.90;9.80;;;23.40;44.60;;;;;;222020;1264;23259;-48
2023/01/21 22:09:36;;;;;;;11.40;9.80;;;23.40;44.30;;;;;;222255;1270;24228;-49
2023/01/21 22:14:40;;;;;;;11.10;9.70;;;23.40;44.10;;;;;;222415;1258;22534;-51
2023/01/21 22:19:44;;;;;;;11.50;10.10;;;23.30;43.80;;;;;;222273;1270;22607;-50
2023/01/21 22:24:48;;;;;;;12.10;10.70;;;23.20;44.30;;;;;;222036;1258;22723;-52
2023/01/21 22:29:57;;;;;;;11.50;10.30;;;23.10;44.50;;;;;;222018;1254;22527;-47
2023/01/21 22:35:04;;;;;;;13.20;10.80;;;23.00;44.60;;;;;;222116;1270;22544;-51
2023/01/21 22:40:09;;;;;;;12.50;10.70;;;22.80;44.80;;;;;;222264;1269;22654;-51
2023/01/21 22:45:13;;;;;;;12.60;10.70;;;22.70;44.40;;;;;;221857;1270;22524;-50
2023/01/21 22:50:17;;;;;;;11.50;10.30;;;22.60;45.50;;;;;;221926;1271;24243;-50
2023/01/21 22:55:21;;;;;;;13.20;11.10;;;22.40;45.30;;;;;;222264;1270;24761;-48
2023/01/21 23:00:36;;;;;;;12.20;10.40;;;22.40;45.30;;;;;;222206;1252;24369;-52
2023/01/21 23:05:40;;;;;;;12.30;11.00;;;22.50;45.30;;;;;;222058;1264;26626;-51
2023/01/21 23:10:46;;;;;;;12.00;10.30;;;22.40;45.30;;;;;;221981;1269;22581;-50
2023/01/21 23:15:50;;;;;;;11.90;10.60;;;22.20;45.90;;;;;;222071;1269;22545;-50
2023/01/21 23:20:54;;;;;;;12.40;10.40;;;22.20;45.30;;;;;;222184;1261;22539;-48
2023/01/21 23:25:58;;;;;;;12.00;10.70;;;22.00;46.20;;;;;;222205;1270;24209;-47
2023/01/21 23:31:05;;;;;;;12.00;10.60;;;22.00;46.00;;;;;;222028;1264;22535;-50
2023/01/21 23:36:14;;;;;;;11.70;10.60;;;21.90;46.10;;;;;;222571;1269;22528;-49
2023/01/21 23:41:19;;;;;;;12.30;10.60;;;21.80;46.50;;;;;;222532;1267;24181;-49
2023/01/21 23:46:23;;;;;;;13.30;10.50;;;21.80;46.20;;;;;;222176;1261;24948;-54
2023/01/21 23:51:28;;;;;;;13.40;11.10;;;21.80;46.30;;;;;;221980;1267;22541;-47
2023/01/21 23:56:32;;;;;;;13.70;11.40;;;22.20;45.90;;;;;;221858;1264;22762;-50
